Terminal Aerodrome Forecast
Issued by NWS Albuquerque, NM

Home | Current Version | Previous Version | Text Only | Print | Product List | Glossary On
Versions: 1 2 3 4 5 6 7 8 9 10 11 12 13 14 15 16 17
000
FTUS45 KABQ 310527
TAFABQ
TAF
KABQ 310527Z 3106/0106 15008KT P6SM FEW080 BKN120
     FM311200 35005KT P6SM VCFG SCT120
     FM311500 VRB05KT P6SM FEW120
     FM311900 23008KT P6SM FEW090
     FM312300 22010KT P6SM VCSH SCT090 BKN150
     FM010500 10015KT P6SM FEW090 BKN120=

USA.gov is the U.S. government's official web portal to all federal, state and local government web resources and services.